АЭРОДРОМУУД

ICAO:
ZMCK
Нэр:
УЛААНБААТАР / Чингис Хаан
Ахц:
473849N 1064912E
020253 ZMUBYNYX
(A0498/22 NOTAMN
Q) ZMUB/QPITT/I /BO /A /000/999/4738N10649E005
A) ZMCK B) 2210060000 C) 2210192359
E) TRIGGER NOTAM - PERM AIRAC AIP AMDT 09/22 WEF 06 OCT 2022 CHANGES OF SID, STAR AND IAP.)
- 1 month ago -
METAR
No records found.
TAF
TAF ZMCK 030754Z 0309/0318 VRB02MPS 9999 SCT100=
- 11 hours ago -
TAF ZMCK 030754Z 0309/0318 VRB02MPS 9999 SCT100=
- 11 hours ago -
TAF ZMCK 030445Z 0306/0412 29005MPS 9999 SCT100 TX02/0307Z TNM13/0322Z BECMG 0309/0311 VRB02MPS=
- 14 hours ago -
TAF ZMCK 030445Z 0306/0412 29005MPS 9999 SCT100 TX02/0307Z TNM13/0322Z BECMG 0309/0311 VRB02MPS=
- 14 hours ago -